Aérodrome :
LOGIN :

S'inscrire | Disclaimer

   EN    FR    IT 

 










Légende :    VFR   VFR Marginal   IFR   IFR Intensif   IFR Très Intensif
Visi : 
Plafond : 
>= 8 km
>= 3000ft
5 à 8 km
1000 à 3000 ft
1500m à 5 km
500 à 1000 ft
800 à 1500m
200 à 500 ft
< 800m
< 200 ft
Symboles :   Orages  Brouillard  Fortes neiges  Fortes précipitations  Vent > 20 kt
SIGMETs :   Divers  Orages  Givrage  Turbulence  Onde Orograph.  Cendres Volcan.






- Altitude de l'aérodrome : 82 ft
- Code IATA : QIE


LFMI - Istres

DERNIER METAR :
  • 180400Z AUTO 28011KT 9999 NCD 05/02 Q1028 NOSIG

METARs EXPIRÉS :
  • 180330Z AUTO 29013KT 9999 NCD 05/02 Q1027 NOSIG
  • 180300Z AUTO 27014KT CAVOK 06/02 Q1027 NOSIG
  • 180230Z AUTO 28012KT CAVOK 05/02 Q1027 NOSIG
  • 180200Z AUTO 29010KT CAVOK 05/03 Q1027 NOSIG
  • 180130Z AUTO 29011KT 9999 NCD 05/03 Q1027

TAF TAF LFMI
Valide du 18 à 03h jusqu'au 19 à 03h UTC


180200Z 1803/1903 29010KT CAVOK
BECMG 1812/1813 34015G25KT
BECMG 1815/1817 36010KT



MET'MAP, la Météo Aéronautique d'un coup d'oeil ! - Copyright ORBIFLY Décembre 2007 - Disclaimer

ORBIFLY MET'MAP TEAM :

Programmation & Développement : Alexandra Zaïnal
Sur une idée originale de : Baudouin d'Aumeries
Assistance à la programmation : Marc-Olivier Méhu
Soutien technique & logistique : Manuel Goepfert

Contact : metmap@orbifly.com




SOURCES & CREDITS :

   NOAA